Flight Track Log - Related Links

Times and Time Zones

All times are in EDT time to prevent confusion due to time zone crossing. See the FLG4262 flight status page for this flight to view local times or setup timezone preferences in your user account.

Time Position Orientation Groundspeed Altitude Reporting Facility
EDT Latitude Longitude Course Direction KTS MPH feet Rate Location/Type
Wed 03:51:59 PM 42.2075 -83.3503 178° South 148 170 1,300  Level Cleveland Center
Wed 03:53:18 PM 42.1364 -83.3461 178° South 225 259 4,300 2,381 Climbing Cleveland Center
Wed 03:54:05 PM 42.0881 -83.3433 178° South 230 265 6,300 2,845 Climbing Cleveland Center
Wed 03:55:14 PM 42.0625 -83.2456 109° East 291 335 9,800 1,790 Climbing Cleveland Center
Wed 03:56:09 PM 42.0961 -83.1653 61° Northeast 306 352 10,000 1,564 Climbing Cleveland Center
Wed 04:00:17 PM 42.2778 -82.6861 87° East 362 417 17,700 1,434 Climbing Cleveland Center
Wed 04:03:24 PM 42.2722 -82.2025 90° East 443 510 20,400 810 Climbing Cleveland Center
Wed 04:05:00 PM 42.1498 -81.8627 87° East  Level Estimated
Wed 04:05:28 PM 42.2669 -81.8286 91° East 465 535 21,900  Level Cleveland Center
Wed 04:06:30 PM 42.2631 -81.6469 92° East 475 547 22,500 581 Climbing Cleveland Center
Wed 04:07:32 PM 42.2603 -81.4644 91° East 477 549 23,100 629 Climbing Cleveland Center
Wed 04:08:34 PM 42.2564 -81.2531 91° East 477 549 23,800 629 Climbing Cleveland Center
Wed 04:09:36 PM 42.2508 -81.0725 92° East 477 549 24,400 528 Climbing Cleveland Center
Wed 04:10:39 PM 42.2481 -80.8894 91° East 478 550 24,900 288 Climbing Cleveland Center
Wed 04:11:41 PM 42.2422 -80.7042 92° East 484 557 25,000 48 Climbing Cleveland Center
Wed 04:12:43 PM 42.2381 -80.5181 92° East 489 563 25,000  Level Cleveland Center
Wed 04:13:45 PM 42.2325 -80.3294 92° East 494 568 25,000  Level Cleveland Center
Wed 04:14:47 PM 42.2261 -80.1383 93° East 505 581 25,000 -484 Level Cleveland Center
Wed 04:15:49 PM 42.2194 -79.9339 92° East 500 575 24,000 -323 Descending Cleveland Center
Wed 04:17:53 PM 42.2050 -79.5681 93° East 493 567 24,000  Level Cleveland Center
Wed 04:18:55 PM 42.1972 -79.3450 93° East 494 568 24,000  Level Cleveland Center
Wed 04:19:58 PM 42.1894 -79.1592 93° East 497 572 24,000  Level Cleveland Center
Wed 04:22:02 PM 42.1950 -78.7811 89° East 493 567 24,000  Level Cleveland Center
Wed 04:23:04 PM 42.1978 -78.5972 89° East 493 567 24,000  Level Cleveland Center
Wed 04:24:06 PM 42.2011 -78.4142 89° East 492 566 24,000 -339 Level Cleveland Center
Wed 04:26:00 PM 42.2003 -78.1454 90° East  Level FlightAware Approximate
Wed 04:27:12 PM 42.2069 -77.8356 90° East 485 558 22,600  Level Cleveland Center
Wed 04:29:41 PM 42.2086 -77.4061 91° East 476 548 20,200 -1,057 Descending New York Center
Wed 04:30:42 PM 42.2097 -77.2353 89° East 482 555 18,900 -1,860 Descending New York Center
Wed 04:31:21 PM 42.2103 -77.1125 90° East 450 518 17,100 -2,245 Descending Cleveland Center
Wed 04:33:25 PM 42.2108 -76.7956 90° East 427 491 12,800 -2,071 Descending Cleveland Center
Wed 04:36:31 PM 42.1886 -76.3881 90° East 308 354 6,400 -1,935 Descending Cleveland Center
Wed 04:37:33 PM 42.1533 -76.2883 115° Southeast 299 344 4,800 -1,152 Descending Cleveland Center
Wed 04:38:36 PM 42.1253 -76.1767 109° East 287 330 4,000 -319 Descending Cleveland Center
Wed 04:40:41 PM 42.1025 -75.9864 90° East 252 290 3,800 -96 Descending New York Center

Login

Don't have an account? Register now (free) for customized features, flight alerts, and more!